Main page
METAR-TAF:

METAR-TAF

Airports :

Le Touquet – Côte d'Opale Airport

Le Touquet, France

latitude: 50-30-53N, longitude: 001-37-39E, elevation: 6 m

Current weather observation

The report was made 30 minutes ago, at 18:00 UTC
Wind 8 kt from the West, varying between Southwest and West/Northwest
Temperature 8°C
Humidity 93%
Pressure 1025 hPa
Visibility: 6000 m
Broken clouds at a height of 1000 ft
Overcast at a height of 1600 ft
light rain, drizzle

METAR: LFAT 291800Z AUTO 26008KT 220V290 6000 -RADZ BKN010 OVC016 08/07 Q1025 TEMPO 3000 RA OVC004

Time: 19:30 (18:30 UTC)

Forecast

The report was made 1 hour and 35 minutes ago, at 16:55 UTC
Forecast valid from 29 at 16 UTC to 29 at 24 UTC
Wind 10 kt from the West
Visibility: 8000 m
Broken clouds at a height of 800 ft
Temporary
from 29 at 18 UTC to 29 at 21 UTC
Visibility: 3000 m
Overcast at a height of 400 ft
rain

TAF: LFAT 291655Z 2916/2924 26010KT 8000 BKN008 TEMPO 2918/2921 3000 RA OVC004

Weather observations and forecasts of more than 4000 airports (METAR and TAF reports).

The available stations are represented by yellow and red dots on the map.

Hover mouse over dot to see the name of the station.

Then click to see weather observations and forecasts.

To change the map : click on the green buttons with a black cross to zoom in, on the green button with a dash to zoom out, or on the green arrows for adjacent maps.


METAR-TAF: